createdAt,value
2019-04-14T00:00:06.135Z,10.04
2019-04-14T00:02:53.348Z,10.12
2019-04-14T00:05:23.291Z,9.97
2019-04-14T00:07:53.787Z,9.97
2019-04-14T00:10:24.595Z,9.87
2019-04-14T00:12:53.988Z,9.86
2019-04-14T00:15:32.317Z,9.77
2019-04-14T00:17:54.643Z,9.69
2019-04-14T00:20:25.019Z,9.78
2019-04-14T00:22:55.530Z,9.77
2019-04-14T00:25:26.152Z,9.41
2019-04-14T00:27:56.439Z,9.39
2019-04-14T00:30:27.207Z,9.39
2019-04-14T00:32:59.603Z,9.41
2019-04-14T00:35:47.902Z,9.40
2019-04-14T00:38:24.027Z,9.44
2019-04-14T00:41:05.222Z,9.45
2019-04-14T00:43:43.910Z,9.45
2019-04-14T00:46:33.801Z,9.41
2019-04-14T00:49:03.430Z,9.56
2019-04-14T00:51:33.155Z,9.54
2019-04-14T00:54:02.565Z,9.58
2019-04-14T00:56:32.286Z,9.64
2019-04-14T00:59:02.808Z,9.73
2019-04-14T01:01:32.985Z,9.67
2019-04-14T01:04:03.380Z,9.67
2019-04-14T01:06:33.577Z,9.75
2019-04-14T01:09:04.318Z,9.84
2019-04-14T01:11:33.727Z,9.84
2019-04-14T01:14:03.750Z,9.94
2019-04-14T01:16:34.091Z,9.92
2019-04-14T01:19:04.688Z,9.89
2019-04-14T01:21:34.961Z,10.07
2019-04-14T01:24:05.327Z,10.07
2019-04-14T01:26:35.658Z,10.09
2019-04-14T01:29:05.861Z,10.15
2019-04-14T01:31:36.018Z,10.24
2019-04-14T01:34:06.333Z,10.15
2019-04-14T01:36:36.677Z,10.15
2019-04-14T01:39:07.021Z,10.20
2019-04-14T01:41:36.805Z,10.20
2019-04-14T01:44:06.857Z,10.24
2019-04-14T01:46:37.331Z,10.26
2019-04-14T01:49:07.252Z,10.26
2019-04-14T01:51:44.675Z,10.26
2019-04-14T01:54:32.379Z,10.26
2019-04-14T01:57:30.639Z,10.22
2019-04-14T02:00:19.080Z,10.24
2019-04-14T02:02:48.741Z,10.17
2019-04-14T02:05:19.121Z,10.07
2019-04-14T02:07:49.424Z,10.08
2019-04-14T02:10:19.442Z,10.15
2019-04-14T02:12:49.623Z,10.24
2019-04-14T02:15:20.056Z,10.27
2019-04-14T02:17:50.235Z,10.18
2019-04-14T02:20:20.725Z,10.18
2019-04-14T02:22:50.597Z,10.19
2019-04-14T02:25:21.006Z,10.09
2019-04-14T02:27:51.494Z,10.05
2019-04-14T02:30:26.261Z,10.05
2019-04-14T02:33:25.912Z,10.15
2019-04-14T02:35:55.267Z,10.15
2019-04-14T02:38:45.429Z,10.18
2019-04-14T02:40:53.895Z,9.93
2019-04-14T02:43:29.396Z,10.06
2019-04-14T02:48:39.737Z,10.00
2019-04-14T02:50:56.147Z,9.86
2019-04-14T02:53:39.400Z,9.86
2019-04-14T02:56:11.534Z,9.97
2019-04-14T02:58:38.639Z,10.05
2019-04-14T03:03:35.918Z,10.06
2019-04-14T03:08:50.850Z,10.16
2019-04-14T03:11:09.498Z,10.05
2019-04-14T03:13:35.131Z,10.11
2019-04-14T03:19:01.826Z,10.17
2019-04-14T03:21:49.125Z,10.13
2019-04-14T03:24:37.412Z,10.13
2019-04-14T03:27:30.518Z,10.01
2019-04-14T03:30:07.691Z,10.01
2019-04-14T03:32:52.782Z,10.01
2019-04-14T03:35:23.194Z,10.06
2019-04-14T03:40:01.156Z,9.98
2019-04-14T03:45:04.187Z,10.01
2019-04-14T03:47:34.969Z,10.09
2019-04-14T03:50:06.146Z,9.97
2019-04-14T03:53:03.276Z,9.83
2019-04-14T03:55:04.172Z,9.80
2019-04-14T03:57:17.223Z,9.86
2019-04-14T03:59:47.713Z,9.85
2019-04-14T04:02:18.280Z,10.04
2019-04-14T04:04:48.840Z,10.04
2019-04-14T04:07:19.252Z,9.94
2019-04-14T04:09:58.887Z,10.02
2019-04-14T04:12:29.272Z,10.05
2019-04-14T04:14:59.718Z,9.79
2019-04-14T04:17:58.030Z,9.87
2019-04-14T04:20:52.528Z,9.87
2019-04-14T04:23:31.391Z,10.04
2019-04-14T04:26:10.435Z,10.13
2019-04-14T04:29:09.025Z,10.17
2019-04-14T04:31:58.882Z,10.31
2019-04-14T04:34:46.655Z,10.29
2019-04-14T04:37:27.941Z,10.28
2019-04-14T04:39:58.750Z,10.39
2019-04-14T04:42:28.676Z,10.39
2019-04-14T04:44:59.519Z,10.41
2019-04-14T04:47:29.510Z,10.52
2019-04-14T04:50:00.048Z,10.56
2019-04-14T04:52:30.085Z,10.58
2019-04-14T04:55:00.179Z,10.70
2019-04-14T04:57:30.430Z,10.85
2019-04-14T05:00:00.611Z,10.95
2019-04-14T05:02:30.970Z,10.87
2019-04-14T05:05:01.290Z,10.90
2019-04-14T05:07:31.703Z,10.89
2019-04-14T05:10:19.557Z,10.79
2019-04-14T05:13:09.397Z,10.88
2019-04-14T05:15:51.300Z,10.99
2019-04-14T05:18:22.424Z,10.84
2019-04-14T05:20:53.093Z,10.66
2019-04-14T05:23:23.450Z,10.67
2019-04-14T05:25:53.863Z,10.83
2019-04-14T05:28:24.529Z,10.98
2019-04-14T05:30:54.689Z,10.89
2019-04-14T05:33:25.065Z,10.97
2019-04-14T05:35:55.302Z,10.82
2019-04-14T05:38:25.864Z,10.88
2019-04-14T05:40:56.210Z,11.21
2019-04-14T05:43:36.972Z,11.40
2019-04-14T05:45:57.074Z,11.56
2019-04-14T05:48:27.233Z,11.75
2019-04-14T05:50:57.745Z,12.01
2019-04-14T05:53:28.306Z,12.19
2019-04-14T05:55:57.805Z,12.42
2019-04-14T05:58:27.551Z,12.64
2019-04-14T06:00:57.997Z,12.77
2019-04-14T06:03:27.798Z,12.76
2019-04-14T06:05:57.290Z,13.08
2019-04-14T06:08:26.817Z,13.20
2019-04-14T06:10:56.302Z,13.34
2019-04-14T06:13:25.693Z,13.44
2019-04-14T06:15:55.082Z,13.77
2019-04-14T06:18:24.322Z,13.95
2019-04-14T06:20:53.862Z,13.98
2019-04-14T06:23:23.270Z,14.16
2019-04-14T06:25:52.548Z,14.28
2019-04-14T06:28:21.912Z,14.58
2019-04-14T06:31:10.183Z,14.52
2019-04-14T06:34:01.076Z,14.47
2019-04-14T06:36:48.362Z,14.74
2019-04-14T06:39:21.227Z,15.61
2019-04-14T06:41:50.696Z,15.58
2019-04-14T06:44:20.144Z,16.06
2019-04-14T06:46:49.872Z,16.56
2019-04-14T06:49:19.354Z,16.90
2019-04-14T06:51:48.721Z,16.67
2019-04-14T06:54:18.134Z,16.70
2019-04-14T06:56:47.562Z,17.07
2019-04-14T06:59:17.053Z,17.54
2019-04-14T07:01:46.385Z,17.26
2019-04-14T07:04:15.857Z,16.89
2019-04-14T07:06:45.294Z,16.80
2019-04-14T07:09:14.761Z,17.25
2019-04-14T07:11:44.156Z,17.82
2019-04-14T07:14:13.471Z,18.56
2019-04-14T07:16:42.879Z,19.51
2019-04-14T07:19:12.319Z,19.73
2019-04-14T07:21:41.648Z,21.56
2019-04-14T07:24:10.969Z,22.39
2019-04-14T07:26:40.533Z,22.89
2019-04-14T07:29:10.077Z,22.73
2019-04-14T07:32:04.474Z,22.73
2019-04-14T07:34:51.320Z,22.45
2019-04-14T07:37:42.857Z,21.94
2019-04-14T07:40:22.954Z,21.09
2019-04-14T07:43:03.071Z,19.58
2019-04-14T07:45:55.199Z,19.20
2019-04-14T07:48:31.566Z,18.51
2019-04-14T07:51:19.920Z,18.34
2019-04-14T07:53:59.504Z,19.05
2019-04-14T07:56:46.292Z,20.47
2019-04-14T07:59:20.337Z,20.91
2019-04-14T08:02:03.042Z,21.00
2019-04-14T08:04:38.969Z,20.62
2019-04-14T08:07:08.502Z,20.21
2019-04-14T08:09:37.955Z,20.72
2019-04-14T08:12:07.552Z,21.03
2019-04-14T08:14:36.990Z,20.58
2019-04-14T08:17:06.448Z,22.97
2019-04-14T08:19:35.847Z,25.30
2019-04-14T08:22:05.463Z,25.62
2019-04-14T08:24:35.083Z,27.32
2019-04-14T08:27:04.599Z,26.91
2019-04-14T08:29:34.067Z,25.74
2019-04-14T08:32:03.537Z,24.95
2019-04-14T08:34:33.083Z,24.14
2019-04-14T08:37:02.445Z,23.52
2019-04-14T08:39:31.918Z,25.31
2019-04-14T08:42:16.108Z,27.43
2019-04-14T08:44:47.359Z,28.36
2019-04-14T08:47:38.863Z,26.44
2019-04-14T08:50:15.813Z,29.65
2019-04-14T08:52:53.237Z,30.35
2019-04-14T08:55:41.253Z,31.28
2019-04-14T08:58:24.953Z,29.82
2019-04-14T09:01:19.378Z,31.89
2019-04-14T09:04:11.004Z,32.08
2019-04-14T09:06:57.011Z,31.54
2019-04-14T09:09:36.805Z,30.17
2019-04-14T09:12:15.670Z,28.20
2019-04-14T09:14:41.082Z,26.67
2019-04-14T09:17:10.452Z,26.34
2019-04-14T09:19:39.959Z,26.94
2019-04-14T09:22:09.445Z,25.68
2019-04-14T09:24:38.869Z,25.10
2019-04-14T09:27:08.289Z,24.58
2019-04-14T09:29:37.780Z,23.81
2019-04-14T09:32:09.072Z,23.09
2019-04-14T09:34:38.568Z,22.21
2019-04-14T09:37:07.921Z,21.89
2019-04-14T09:39:37.372Z,21.39
2019-04-14T09:42:06.968Z,21.01
2019-04-14T09:44:36.433Z,20.59
2019-04-14T09:47:06.043Z,21.23
2019-04-14T09:49:35.511Z,20.70
2019-04-14T09:52:04.870Z,20.46
2019-04-14T09:54:34.108Z,19.91
2019-04-14T09:57:03.726Z,19.56
2019-04-14T09:59:33.205Z,19.29
2019-04-14T10:02:02.515Z,18.92
2019-04-14T10:04:32.088Z,18.67
2019-04-14T10:07:01.622Z,18.48
2019-04-14T10:09:31.139Z,18.36
2019-04-14T10:12:00.551Z,18.51
2019-04-14T10:14:30.176Z,18.68
2019-04-14T10:17:01.390Z,19.57
2019-04-14T10:19:31.290Z,21.60
2019-04-14T10:22:00.863Z,22.16
2019-04-14T10:24:30.376Z,21.77
2019-04-14T10:26:59.897Z,20.56
2019-04-14T10:29:29.455Z,20.15
2019-04-14T10:31:58.869Z,19.62
2019-04-14T10:34:28.260Z,19.69
2019-04-14T10:36:57.670Z,20.06
2019-04-14T10:39:26.994Z,22.69
2019-04-14T10:41:56.423Z,24.33
2019-04-14T10:44:25.900Z,24.47
2019-04-14T10:46:55.427Z,23.47
2019-04-14T10:49:24.991Z,22.73
2019-04-14T10:51:54.410Z,22.31
2019-04-14T10:54:23.886Z,22.44
2019-04-14T10:56:53.501Z,22.50
2019-04-14T10:59:22.860Z,21.47
2019-04-14T11:01:52.377Z,21.43
2019-04-14T11:04:21.921Z,22.39
2019-04-14T11:07:01.751Z,25.34
2019-04-14T11:09:31.253Z,26.96
2019-04-14T11:12:00.708Z,27.59
2019-04-14T11:14:30.214Z,29.03
2019-04-14T11:16:59.638Z,26.84
2019-04-14T11:19:29.207Z,25.56
2019-04-14T11:21:58.598Z,23.60
2019-04-14T11:24:28.072Z,22.43
2019-04-14T11:26:57.660Z,21.67
2019-04-14T11:29:27.214Z,21.54
2019-04-14T11:32:21.651Z,21.24
2019-04-14T11:35:01.878Z,20.88
2019-04-14T11:37:49.219Z,20.98
2019-04-14T11:40:21.114Z,20.75
2019-04-14T11:42:52.619Z,20.21
2019-04-14T11:45:21.928Z,19.69
2019-04-14T11:47:51.349Z,19.73
2019-04-14T11:50:20.747Z,18.84
2019-04-14T11:52:50.325Z,18.27
2019-04-14T11:55:19.754Z,18.04
2019-04-14T11:57:49.161Z,17.97
2019-04-14T12:00:36.146Z,17.86
2019-04-14T12:03:24.356Z,17.62
2019-04-14T12:06:11.360Z,17.37
2019-04-14T12:08:59.660Z,17.32
2019-04-14T12:11:29.236Z,16.96
2019-04-14T12:13:58.635Z,16.67
2019-04-14T12:16:28.030Z,16.60
2019-04-14T12:18:57.437Z,16.49
2019-04-14T12:21:27.029Z,16.33
2019-04-14T12:23:56.496Z,16.41
2019-04-14T12:26:25.950Z,16.30
2019-04-14T12:28:55.851Z,16.28
2019-04-14T12:31:26.449Z,16.12
2019-04-14T12:33:56.114Z,15.94
2019-04-14T12:36:25.473Z,16.01
2019-04-14T12:38:55.082Z,16.08
2019-04-14T12:41:30.854Z,15.80
2019-04-14T12:44:18.327Z,15.78
2019-04-14T12:46:54.165Z,15.84
2019-04-14T12:49:27.982Z,15.95
2019-04-14T12:52:21.465Z,16.08
2019-04-14T12:54:48.282Z,16.32
2019-04-14T12:57:21.600Z,16.57
2019-04-14T12:59:50.964Z,16.57
2019-04-14T13:02:25.913Z,16.68
2019-04-14T13:04:55.575Z,16.67
2019-04-14T13:07:25.023Z,16.60
2019-04-14T13:09:54.449Z,16.77
2019-04-14T13:12:23.852Z,16.89
2019-04-14T13:14:54.538Z,16.75
2019-04-14T13:17:24.348Z,16.57
2019-04-14T13:19:53.950Z,16.71
2019-04-14T13:22:33.359Z,16.91
2019-04-14T13:24:54.525Z,16.99
2019-04-14T13:27:25.075Z,17.10
2019-04-14T13:29:54.481Z,17.41
2019-04-14T13:32:35.373Z,17.61
2019-04-14T13:34:55.264Z,17.53
2019-04-14T13:37:24.747Z,17.48
2019-04-14T13:39:54.268Z,17.37
2019-04-14T13:42:23.766Z,17.00
2019-04-14T13:44:53.224Z,17.07
2019-04-14T13:47:22.627Z,16.75
2019-04-14T13:49:52.192Z,16.61
2019-04-14T13:52:21.702Z,16.40
2019-04-14T13:54:52.746Z,16.32
2019-04-14T13:57:22.401Z,16.11
2019-04-14T13:59:51.927Z,16.07
2019-04-14T14:02:21.522Z,16.16
2019-04-14T14:04:51.032Z,16.14
2019-04-14T14:07:20.509Z,16.11
2019-04-14T14:09:49.944Z,16.20
2019-04-14T14:12:33.703Z,16.15
2019-04-14T14:15:20.748Z,15.98
2019-04-14T14:18:07.528Z,16.01
2019-04-14T14:20:54.693Z,16.16
2019-04-14T14:23:28.902Z,16.03
2019-04-14T14:26:04.706Z,15.96
2019-04-14T14:28:34.197Z,16.12
2019-04-14T14:31:03.851Z,16.02
2019-04-14T14:33:33.247Z,16.10
2019-04-14T14:36:02.507Z,16.21
2019-04-14T14:38:31.931Z,16.00
2019-04-14T14:41:03.041Z,16.01
2019-04-14T14:43:32.610Z,15.98
2019-04-14T14:46:39.204Z,15.95
2019-04-14T14:49:12.660Z,15.80
2019-04-14T14:51:48.593Z,15.74
2019-04-14T14:54:17.821Z,15.74
2019-04-14T14:56:47.343Z,15.78
2019-04-14T14:59:16.934Z,15.65
2019-04-14T15:01:46.429Z,15.76
2019-04-14T15:04:18.878Z,15.64
2019-04-14T15:06:47.236Z,15.53
2019-04-14T15:09:16.667Z,15.39
2019-04-14T15:11:46.133Z,15.52
2019-04-14T15:14:15.744Z,15.51
2019-04-14T15:16:45.364Z,15.22
2019-04-14T15:19:14.583Z,15.17
2019-04-14T15:21:44.038Z,15.16
2019-04-14T15:24:13.573Z,15.23
2019-04-14T15:26:43.100Z,15.05
2019-04-14T15:29:12.585Z,14.77
2019-04-14T15:31:41.854Z,14.55
2019-04-14T15:34:11.397Z,14.28
2019-04-14T15:36:41.040Z,14.17
2019-04-14T15:39:10.793Z,14.02
2019-04-14T15:41:40.263Z,13.59
2019-04-14T15:44:09.708Z,13.39
2019-04-14T15:46:39.282Z,13.23
2019-04-14T15:49:08.963Z,13.06
2019-04-14T15:51:38.386Z,12.85
2019-04-14T15:54:07.997Z,12.84
2019-04-14T15:56:56.423Z,12.83
2019-04-14T15:59:37.621Z,12.80
2019-04-14T16:02:19.175Z,12.75
2019-04-14T16:05:12.519Z,12.79
2019-04-14T16:07:47.550Z,12.86
2019-04-14T16:10:35.911Z,12.88
2019-04-14T16:13:18.916Z,12.74
2019-04-14T16:16:13.067Z,12.74
2019-04-14T16:19:01.461Z,12.63
2019-04-14T16:21:30.924Z,12.55
2019-04-14T16:24:00.479Z,12.60
2019-04-14T16:26:51.645Z,12.41
2019-04-14T16:29:25.011Z,12.44
2019-04-14T16:32:12.239Z,12.35
2019-04-14T16:34:47.381Z,12.24
2019-04-14T16:37:16.857Z,12.09
2019-04-14T16:39:46.427Z,12.09
2019-04-14T16:42:17.837Z,12.05
2019-04-14T16:44:47.435Z,11.94
2019-04-14T16:47:16.773Z,11.97
2019-04-14T16:49:46.309Z,11.98
2019-04-14T16:52:29.370Z,12.00
2019-04-14T16:55:04.782Z,12.15
2019-04-14T16:57:51.751Z,12.22
2019-04-14T17:00:27.425Z,12.34
2019-04-14T17:02:56.901Z,12.17
2019-04-14T17:05:26.520Z,12.01
2019-04-14T17:07:55.952Z,11.91
2019-04-14T17:10:25.621Z,11.71
2019-04-14T17:12:55.143Z,11.67
2019-04-14T17:15:52.566Z,11.65
2019-04-14T17:18:29.483Z,11.60
2019-04-14T17:21:17.953Z,11.61
2019-04-14T17:23:52.913Z,11.67
2019-04-14T17:26:32.400Z,11.58
2019-04-14T17:29:20.726Z,11.61
2019-04-14T17:32:20.477Z,11.60
2019-04-14T17:35:07.953Z,11.61
2019-04-14T17:37:53.756Z,11.51
2019-04-14T17:40:33.175Z,11.56
2019-04-14T17:43:15.770Z,11.45
2019-04-14T17:45:57.601Z,11.49
2019-04-14T17:48:52.084Z,11.45
2019-04-14T17:51:29.830Z,11.36
2019-04-14T17:54:04.785Z,11.21
2019-04-14T17:56:56.283Z,11.26
2019-04-14T17:59:33.670Z,11.27
2019-04-14T18:02:16.539Z,11.33
2019-04-14T18:05:02.554Z,11.21
2019-04-14T18:07:41.189Z,11.16
2019-04-14T18:10:18.638Z,11.17
2019-04-14T18:13:16.026Z,11.22
2019-04-14T18:16:07.145Z,11.29
2019-04-14T18:19:13.689Z,11.32
2019-04-14T18:21:44.408Z,11.47
2019-04-14T18:24:14.018Z,11.49
2019-04-14T18:26:43.316Z,11.39
2019-04-14T18:29:49.754Z,11.47
2019-04-14T18:32:38.145Z,11.45
2019-04-14T18:35:17.603Z,11.48
2019-04-14T18:38:11.850Z,11.53
2019-04-14T18:40:46.827Z,11.33
2019-04-14T18:43:33.516Z,11.32
2019-04-14T18:46:34.101Z,11.28
2019-04-14T18:49:08.974Z,11.33
2019-04-14T18:51:49.740Z,11.34
2019-04-14T18:54:33.390Z,11.32
2019-04-14T18:57:20.400Z,11.24
2019-04-14T18:59:57.758Z,11.22
2019-04-14T19:02:27.197Z,11.06
2019-04-14T19:04:56.553Z,11.02
2019-04-14T19:07:25.905Z,11.15
2019-04-14T19:09:55.190Z,11.16
2019-04-14T19:12:49.600Z,11.13
2019-04-14T19:15:32.717Z,11.11
2019-04-14T19:18:25.887Z,11.19
2019-04-14T19:21:01.801Z,11.00
2019-04-14T19:23:31.297Z,11.08
2019-04-14T19:26:00.732Z,11.09
2019-04-14T19:28:30.270Z,11.01
2019-04-14T19:30:59.789Z,10.92
2019-04-14T19:33:29.239Z,11.01
2019-04-14T19:35:58.744Z,11.03
2019-04-14T19:38:28.031Z,11.00
2019-04-14T19:40:57.491Z,10.96
2019-04-14T19:43:27.030Z,10.89
2019-04-14T19:45:56.750Z,10.90
2019-04-14T19:48:26.376Z,10.88
2019-04-14T19:50:55.961Z,10.83
2019-04-14T19:53:25.316Z,10.82
2019-04-14T19:55:54.745Z,10.82
2019-04-14T19:58:24.210Z,10.86
2019-04-14T20:00:53.626Z,11.01
2019-04-14T20:03:23.056Z,11.02
2019-04-14T20:05:52.474Z,11.03
2019-04-14T20:08:21.935Z,10.98
2019-04-14T20:10:51.319Z,10.94
2019-04-14T20:13:20.771Z,10.97
2019-04-14T20:16:18.124Z,10.95
2019-04-14T20:19:10.529Z,10.93
2019-04-14T20:22:02.732Z,10.99
2019-04-14T20:24:39.026Z,11.04
2019-04-14T20:27:36.213Z,11.11
2019-04-14T20:30:10.899Z,11.13
2019-04-14T20:32:49.996Z,11.03
2019-04-14T20:35:19.543Z,10.93
2019-04-14T20:37:49.031Z,10.82
2019-04-14T20:40:18.536Z,10.85
2019-04-14T20:42:48.034Z,10.69
2019-04-14T20:45:18.204Z,10.71
2019-04-14T20:47:47.582Z,10.62
2019-04-14T20:50:17.057Z,10.54
2019-04-14T20:52:47.483Z,10.62
2019-04-14T20:55:16.815Z,10.62
2019-04-14T20:57:46.222Z,10.67
2019-04-14T21:00:15.765Z,10.66
2019-04-14T21:03:04.021Z,10.56
2019-04-14T21:06:07.552Z,10.60
2019-04-14T21:09:05.095Z,10.62
2019-04-14T21:11:42.700Z,10.39
2019-04-14T21:14:39.975Z,10.39
2019-04-14T21:17:15.504Z,10.31
2019-04-14T21:20:02.116Z,10.32
2019-04-14T21:22:53.311Z,10.37
2019-04-14T21:25:37.018Z,10.46
2019-04-14T21:28:25.401Z,10.44
2019-04-14T21:31:16.432Z,10.44
2019-04-14T21:33:56.205Z,10.38
2019-04-14T21:36:33.606Z,10.38
2019-04-14T21:39:11.735Z,10.46
2019-04-14T21:41:41.804Z,10.46
2019-04-14T21:44:11.131Z,10.60
2019-04-14T21:46:40.434Z,10.70
2019-04-14T21:49:09.878Z,10.77
2019-04-14T21:51:57.119Z,10.81
2019-04-14T21:54:26.571Z,10.81
2019-04-14T21:57:23.720Z,10.82
2019-04-14T22:00:24.016Z,10.80
2019-04-14T22:03:11.150Z,10.73
2019-04-14T22:05:59.528Z,10.76
2019-04-14T22:08:32.117Z,10.61
2019-04-14T22:11:03.992Z,10.64
2019-04-14T22:13:33.442Z,10.61
2019-04-14T22:16:03.006Z,10.61
2019-04-14T22:18:32.457Z,10.60
2019-04-14T22:21:01.928Z,10.64
2019-04-14T22:23:31.472Z,10.61
2019-04-14T22:26:00.915Z,10.64
2019-04-14T22:28:30.394Z,10.66
2019-04-14T22:30:59.694Z,10.67
2019-04-14T22:33:29.283Z,10.72
2019-04-14T22:35:58.642Z,10.66
2019-04-14T22:38:27.861Z,10.62
2019-04-14T22:40:57.527Z,10.54
2019-04-14T22:43:27.030Z,10.52
2019-04-14T22:45:56.512Z,10.47
2019-04-14T22:48:25.937Z,10.42
2019-04-14T22:50:55.155Z,10.43
2019-04-14T22:53:24.461Z,10.32
2019-04-14T22:55:53.958Z,10.29
2019-04-14T22:58:23.452Z,10.29
2019-04-14T23:00:57.136Z,10.24
2019-04-14T23:03:49.059Z,10.23
2019-04-14T23:06:36.315Z,10.21
2019-04-14T23:09:28.553Z,10.13
2019-04-14T23:12:34.808Z,10.10
2019-04-14T23:15:22.219Z,10.10
2019-04-14T23:18:05.189Z,10.12
2019-04-14T23:21:05.219Z,10.15
2019-04-14T23:23:56.758Z,10.18
2019-04-14T23:26:26.252Z,10.20
2019-04-14T23:28:55.764Z,10.17
2019-04-14T23:31:25.076Z,10.07
2019-04-14T23:33:54.460Z,9.97
2019-04-14T23:36:23.880Z,10.07
2019-04-14T23:38:53.235Z,10.03
2019-04-14T23:41:22.652Z,10.03
2019-04-14T23:43:51.917Z,9.93
2019-04-14T23:46:21.349Z,9.72
2019-04-14T23:48:50.961Z,9.72
2019-04-14T23:51:20.418Z,9.78
2019-04-14T23:53:49.905Z,9.78
2019-04-14T23:56:19.280Z,9.76
2019-04-14T23:58:48.644Z,9.83
